^^
Station Historical Data
Daily Summary for February 18, 2018 Units:  Metric    English   Both
« Previous Day
Next Day »
Daily Weekly Monthly Yearly Custom
  High: Low: Average:
Temperature: -17.8 °C 18.1 °C 22.5 °C
Dew Point: -17.8 °C -3.7 °C 6.3 °C
Humidity: Humidity% 10% 37%
Wind Speed: 0km/h 0km/h 13.8km/h
Wind Gust: 0km/h - -
Wind- - SSW
Pressure: 0 hPa 1003.6 hPa -
Precipitation: 0 mm    
Historical Graphs
 
 
Tabular Data for February 18, 2018
Time Temperature Dew Point Pressure Wind Wind Speed Wind Gust Humidity Rainfall Rate (Hourly) solar Conditions
-17.8 °C -17.8 °C 0 hPa Calm     Humidity% 0 mm SolarRadiationWatts/m^2 W/m2 Conditions
00:05 23.1 °C 6.4 °C 1005.6 hPa South 17.7 km/h 19.3 km/h 34% 0 mm 0.0 W/m2
00:10 23.1 °C 5.9 °C 1005.3 hPa SSW 11.1 km/h 17.7 km/h 33% 0 mm 0.0 W/m2
00:20 23 °C 5.9 °C 1005.6 hPa South 13 km/h 14.5 km/h 33% 0 mm 0.0 W/m2
00:25 23 °C 5.9 °C 1005.6 hPa South 17.7 km/h 17.7 km/h 33% 0 mm 0.0 W/m2
00:30 23.1 °C 5.5 °C 1005.6 hPa South 9.7 km/h 16.1 km/h 32% 0 mm 0.0 W/m2
00:35 23.1 °C 5.5 °C 1005.6 hPa South 11.1 km/h 17.7 km/h 32% 0 mm 0.0 W/m2
00:45 23.1 °C 5 °C 1005.6 hPa South 11.1 km/h 17.7 km/h 31% 0 mm 0.0 W/m2
00:50 23.1 °C 5 °C 1005.6 hPa South 14.3 km/h 16.1 km/h 31% 0 mm 0.0 W/m2
00:55 23.1 °C 5 °C 1005.6 hPa South 17.7 km/h 19.3 km/h 31% 0 mm 0.0 W/m2
01:00 23.1 °C 5 °C 1005.6 hPa South 16.3 km/h 17.7 km/h 31% 0 mm 0.0 W/m2
01:10 23.2 °C 4.7 °C 1005.6 hPa SSW 17.7 km/h 24.1 km/h 30% 0 mm 0.0 W/m2
01:20 23.1 °C 5 °C 1005.6 hPa SSW 13 km/h 17.7 km/h 31% 0 mm 0.0 W/m2
01:25 23 °C 5 °C 1005.6 hPa SSW 9.7 km/h 17.7 km/h 31% 0 mm 0.0 W/m2
01:30 23 °C 5 °C 1005.6 hPa SSW 17.7 km/h 19.3 km/h 31% 0 mm 0.0 W/m2
01:35 22.9 °C 4.9 °C 1005.6 hPa SSW 13 km/h 19.3 km/h 31% 0 mm 0.0 W/m2
01:41 22.9 °C 4.9 °C 1005.6 hPa SSW 14.3 km/h 16.1 km/h 31% 0 mm 0.0 W/m2
01:51 22.8 °C 4.3 °C 1005.6 hPa SSW 11.1 km/h 16.1 km/h 30% 0 mm 0.0 W/m2
01:56 22.8 °C 4.3 °C 1005.6 hPa SSW 16.3 km/h 16.3 km/h 30% 0 mm 0.0 W/m2
02:01 22.7 °C 4.2 °C 1005.6 hPa SSW 16.3 km/h 20.9 km/h 30% 0 mm 0.0 W/m2
02:06 22.6 °C 4.6 °C 1005.6 hPa South 17.7 km/h 20.9 km/h 31% 0 mm 0.0 W/m2
02:11 22.4 °C 4.9 °C 1005.6 hPa SSW 14.3 km/h 19.3 km/h 32% 0 mm 0.0 W/m2
02:22 22.1 °C 5.5 °C 1005.3 hPa SSW 11.1 km/h 19.3 km/h 34% 0 mm 0.0 W/m2
02:27 21.9 °C 5.7 °C 1005.3 hPa SSW 13 km/h 14.5 km/h 35% 0 mm 0.0 W/m2
02:37 21.8 °C 6.1 °C 1005.3 hPa South 9.7 km/h 17.7 km/h 36% 0 mm 0.0 W/m2
02:46 21.6 °C 5.9 °C 1005 hPa SSW 13 km/h 14.5 km/h 36% 0 mm 0.0 W/m2
02:51 21.6 °C 5.9 °C 1005 hPa SSW 17.7 km/h 17.7 km/h 36% 0 mm 0.0 W/m2
02:57 21.5 °C 5.8 °C 1005 hPa SSW 16.3 km/h 16.3 km/h 36% 0 mm 0.0 W/m2
03:02 21.4 °C 5.3 °C 1005 hPa SSW 17.7 km/h 17.7 km/h 35% 0 mm 0.0 W/m2
03:07 21.4 °C 5.3 °C 1004.6 hPa SSW 7.9 km/h 17.7 km/h 35% 0 mm 0.0 W/m2
03:16 21.4 °C 5.3 °C 1004.6 hPa SSW 13 km/h 16.1 km/h 35% 0 mm 0.0 W/m2
03:22 21.4 °C 5.3 °C 1004.6 hPa SSW 13 km/h 16.1 km/h 35% 0 mm 0.0 W/m2
03:27 21.3 °C 4.8 °C 1004.6 hPa SSW 16.3 km/h 17.7 km/h 34% 0 mm 0.0 W/m2
03:32 21.3 °C 5.2 °C 1004.6 hPa SSW 9.7 km/h 12.9 km/h 35% 0 mm 0.0 W/m2
03:37 21.2 °C 5.5 °C 1004.6 hPa SSW 11.1 km/h 12.9 km/h 36% 0 mm 0.0 W/m2
03:42 21 °C 5.8 °C 1004.6 hPa SSW 9.7 km/h 12.9 km/h 37% 0 mm 0.0 W/m2
03:52 20.8 °C 6.3 °C 1004.6 hPa SSW 6.4 km/h 11.3 km/h 39% 0 mm 0.0 W/m2
03:57 20.6 °C 6.9 °C 1004.6 hPa SSW 9.7 km/h 14.5 km/h 41% 0 mm 0.0 W/m2
04:02 20.3 °C 7.3 °C 1004.6 hPa SSW 9.7 km/h 12.9 km/h 43% 0 mm 0.0 W/m2
04:07 20.2 °C 7.9 °C 1005 hPa SSW 6.4 km/h 12.9 km/h 45% 0 mm 0.0 W/m2
04:12 20 °C 8 °C 1004.6 hPa SSW 9.7 km/h 9.7 km/h 46% 0 mm 0.0 W/m2
04:18 19.9 °C 8.6 °C 1004.6 hPa SSW 7.9 km/h 11.3 km/h 48% 0 mm 0.0 W/m2
04:28 19.7 °C 9 °C 1004.6 hPa SSW 7.9 km/h 12.9 km/h 50% 0 mm 0.0 W/m2
04:38 19.5 °C 9.1 °C 1004.6 hPa SSW 6.4 km/h 8 km/h 51% 0 mm 0.0 W/m2
04:43 19.4 °C 9 °C 1004.3 hPa SSW 4.7 km/h 8 km/h 51% 0 mm 0.0 W/m2
04:53 19.3 °C 9.2 °C 1004.3 hPa SSW 4.7 km/h 6.4 km/h 52% 0 mm 0.0 W/m2
04:58 19.2 °C 9.1 °C 1004.3 hPa SSW 6.4 km/h 6.4 km/h 52% 0 mm 0.0 W/m2
05:03 19.1 °C 9.3 °C 1004.3 hPa SSW 6.4 km/h 6.4 km/h 53% 0 mm 0.0 W/m2
05:08 19 °C 9.2 °C 1004.3 hPa SSW 6.4 km/h 8 km/h 53% 0 mm 0.0 W/m2
05:13 18.9 °C 9.4 °C 1004.3 hPa SSW 6.4 km/h 8 km/h 54% 0 mm 0.0 W/m2
05:18 18.9 °C 9.1 °C 1004.3 hPa SSW 7.9 km/h 8 km/h 53% 0 mm 0.0 W/m2
05:24 18.9 °C 9.1 °C 1004.3 hPa SSW 7.9 km/h 9.7 km/h 53% 0 mm 0.0 W/m2
05:29 18.9 °C 9.1 °C 1004.3 hPa SSW 9.7 km/h 9.7 km/h 53% 0 mm 0.0 W/m2
05:34 18.9 °C 9.1 °C 1004.3 hPa SSW 7.9 km/h 9.7 km/h 53% 0 mm 0.0 W/m2
05:39 18.9 °C 9.1 °C 1004.3 hPa SSW 11.1 km/h 11.3 km/h 53% 0 mm 0.0 W/m2
05:44 18.9 °C 9.1 °C 1004.6 hPa SSW 11.1 km/h 16.1 km/h 53% 0 mm 0.0 W/m2
05:49 19 °C 9.2 °C 1004.6 hPa SSW 14.3 km/h 17.7 km/h 53% 0 mm 0.0 W/m2
05:54 19 °C 9.5 °C 1004.6 hPa SW 11.1 km/h 17.7 km/h 54% 0 mm 0.0 W/m2
05:59 18.8 °C 9.3 °C 1005 hPa SW 13 km/h 16.1 km/h 54% 0 mm 0.0 W/m2
06:04 18.8 °C 9.6 °C 1005 hPa SW 9.7 km/h 11.3 km/h 55% 0 mm 0.0 W/m2
06:09 18.7 °C 9.7 °C 1005 hPa SW 7.9 km/h 9.7 km/h 56% 0 mm 0.0 W/m2
06:19 18.4 °C 9.7 °C 1005 hPa SW 6.4 km/h 12.9 km/h 57% 0 mm 0.0 W/m2
06:24 18.3 °C 9.9 °C 1005 hPa SW 7.9 km/h 12.9 km/h 58% 0 mm 0.0 W/m2
06:34 18.2 °C 10.1 °C 1005 hPa SW 4.7 km/h 6.4 km/h 59% 0 mm 0.0 W/m2
06:39 18.2 °C 10.1 °C 1005.3 hPa SW 6.4 km/h 8 km/h 59% 0 mm 5.0 W/m2
06:44 18.1 °C 10.2 °C 1005.3 hPa SW 6.4 km/h 8 km/h 60% 0 mm 9.0 W/m2
06:50 18.1 °C 10.2 °C 1005.3 hPa SW 7.9 km/h 8 km/h 60% 0 mm 14.0 W/m2
06:55 18.1 °C 10.2 °C 1005.6 hPa SW 7.9 km/h 9.7 km/h 60% 0 mm 18.0 W/m2
07:06 18.3 °C 10.1 °C 1005.6 hPa SW 3.2 km/h 8 km/h 59% 0 mm 40.0 W/m2
07:16 18.6 °C 10.4 °C 1006 hPa SW 7.9 km/h 9.7 km/h 59% 0 mm 72.0 W/m2
07:26 18.8 °C 10.4 °C 1006 hPa SW 9.7 km/h 14.5 km/h 58% 0 mm 113.0 W/m2
07:31 18.9 °C 10.5 °C 1006 hPa SW 7.9 km/h 9.7 km/h 58% 0 mm 137.0 W/m2
07:42 19.1 °C 10.1 °C 1006 hPa SW 6.4 km/h 9.7 km/h 56% 0 mm 185.0 W/m2
07:48 19.2 °C 10.2 °C 1006.3 hPa SW 4.7 km/h 8 km/h 56% 0 mm 207.0 W/m2
07:53 19.3 °C 10 °C 1006.3 hPa SW 6.4 km/h 8 km/h 55% 0 mm 230.0 W/m2
07:58 19.5 °C 10.2 °C 1006.3 hPa SW 9.7 km/h 12.9 km/h 55% 0 mm 251.0 W/m2
08:03 19.6 °C 10.3 °C 1006.3 hPa SW 11.1 km/h 11.3 km/h 55% 0 mm 271.0 W/m2
08:13 19.9 °C 10.3 °C 1006.3 hPa SW 9.7 km/h 12.9 km/h 54% 0 mm 311.0 W/m2
08:21 20.1 °C 10.2 °C 1006.3 hPa SW 9.7 km/h 12.9 km/h 53% 0 mm 350.0 W/m2
08:27 20.2 °C 10 °C 1006.3 hPa SW 6.4 km/h 11.3 km/h 52% 0 mm 366.0 W/m2
08:33 20.4 °C 9.9 °C 1006.3 hPa SW 11.1 km/h 12.9 km/h 51% 0 mm 385.0 W/m2
08:43 20.7 °C 9.9 °C 1006.3 hPa SW 9.7 km/h 12.9 km/h 50% 0 mm 424.0 W/m2
08:49 21.1 °C 9.3 °C 1006.3 hPa SW 7.9 km/h 12.9 km/h 47% 0 mm 443.0 W/m2
08:58 21.7 °C 8.2 °C 1006.7 hPa SW 14.3 km/h 16.1 km/h 42% 0 mm 478.0 W/m2
09:03 22 °C 8.1 °C 1006.7 hPa SW 13 km/h 14.5 km/h 41% 0 mm 496.0 W/m2
09:09 22.2 °C 7.2 °C 1006.7 hPa SW 13 km/h 14.5 km/h 38% 0 mm 512.0 W/m2
09:19 22.4 °C 8.9 °C 1006.7 hPa SW 11.1 km/h 14.5 km/h 42% 0 mm 547.0 W/m2
09:29 22.5 °C 8.6 °C 1006.7 hPa SW 9.7 km/h 14.5 km/h 41% 0 mm 582.0 W/m2
09:37 22.9 °C 7.4 °C 1006.7 hPa SW 9.7 km/h 14.5 km/h 37% 0 mm 612.0 W/m2
09:43 23.3 °C 7.4 °C 1006.7 hPa SSW 11.1 km/h 14.5 km/h 36% 0 mm 633.0 W/m2
09:53 23.7 °C 6.9 °C 1006.7 hPa SSW 7.9 km/h 14.5 km/h 34% 0 mm 664.0 W/m2
10:03 23.9 °C 6.2 °C 1006.7 hPa SSW 9.7 km/h 14.5 km/h 32% 0 mm 696.0 W/m2
10:12 24.5 °C 5.8 °C 1006.7 hPa SSW 11.1 km/h 12.9 km/h 30% 0 mm 724.0 W/m2
10:23 25 °C 4.2 °C 1006.7 hPa SSW 4.7 km/h 11.3 km/h 26% 0 mm 754.0 W/m2
10:28 25.3 °C 5 °C 1006.7 hPa SSW 7.9 km/h 14.5 km/h 27% 0 mm 766.0 W/m2
10:33 25.5 °C 2.8 °C 1006.7 hPa SW 3.2 km/h 17.7 km/h 23% 0 mm 780.0 W/m2
10:52 26.2 °C 4.6 °C 1006.7 hPa SW 13 km/h 16.1 km/h 25% 0 mm 816.0 W/m2
10:59 26.2 °C 4 °C 1006.7 hPa Calm     24% 0 mm 838.0 W/m2
11:08 26.8 °C 4.5 °C 1006.7 hPa SW 7.9 km/h 12.9 km/h 24% 0 mm 860.0 W/m2
11:18 27.3 °C 3.7 °C 1006.7 hPa Calm   8 km/h 22% 0 mm 884.0 W/m2
11:28 27.7 °C 3.4 °C 1006.3 hPa Calm     21% 0 mm 904.0 W/m2
11:38 28.5 °C 1.1 °C 1006.3 hPa WSW 13 km/h 13 km/h 17% 0 mm 921.0 W/m2
11:43 28.6 °C 1.2 °C 1006.3 hPa WSW 11.1 km/h 17.7 km/h 17% 0 mm 925.0 W/m2
11:49 28.6 °C 1.2 °C 1006.3 hPa Calm     17% 0 mm 930.0 W/m2
11:54 28.8 °C 0.5 °C 1006.3 hPa WSW 6.4 km/h 8 km/h 16% 0 mm 940.0 W/m2
12:03 29.1 °C -2.1 °C 1006 hPa WSW 7.9 km/h 19.3 km/h 13% 0 mm 953.0 W/m2
12:08 29.4 °C -0.9 °C 1006 hPa WSW 14.3 km/h 19.3 km/h 14% 0 mm 956.0 W/m2
12:15 29.4 °C -0.9 °C 1006 hPa WSW 11.1 km/h 16.1 km/h 14% 0 mm 958.0 W/m2
12:59 29.7 °C -1.7 °C 1005.6 hPa Calm     13% 0 mm 981.0 W/m2
13:07 30.4 °C -1.1 °C 1005.3 hPa West 7.9 km/h 9.7 km/h 13% 0 mm 984.0 W/m2
13:46 30.9 °C -1.8 °C 1005 hPa West 9.7 km/h 11.3 km/h 12% 0 mm 972.0 W/m2
14:02 31.7 °C -3.7 °C 1004.6 hPa WNW 13 km/h 20.9 km/h 10% 0 mm 956.0 W/m2
14:17 31.6 °C -1.3 °C 1004.6 hPa SSW 11.1 km/h 16.1 km/h 12% 0 mm 933.0 W/m2
15:00 31.9 °C 1.1 °C 1004.3 hPa SSW 22.7 km/h 22.7 km/h 14% 0 mm 861.0 W/m2
15:16 31.6 °C 1.8 °C 1004.3 hPa SSW 16.3 km/h 16.3 km/h 15% 0 mm 826.0 W/m2
16:11 31.8 °C 2.9 °C 1003.6 hPa SSW 13 km/h 22.5 km/h 16% 0 mm 679.0 W/m2
16:41 31.5 °C 3.5 °C 1003.9 hPa SW 22.7 km/h 25.7 km/h 17% 0 mm 582.0 W/m2
16:53 31.2 °C 4.1 °C 1003.9 hPa SSW 20.9 km/h 27.4 km/h 18% 0 mm 533.0 W/m2
17:04 30.8 °C 5.2 °C 1003.9 hPa SW 30.6 km/h 30.6 km/h 20% 0 mm 496.0 W/m2
17:13 30.9 °C 5.3 °C 1003.9 hPa SSW 27.4 km/h 30.6 km/h 20% 0 mm 464.0 W/m2
17:22 30.3 °C 5.5 °C 1003.9 hPa SSW 19.5 km/h 27.4 km/h 21% 0 mm 418.0 W/m2
17:28 30.2 °C 6.8 °C 1003.9 hPa SSW 25.9 km/h 30.6 km/h 23% 0 mm 406.0 W/m2
17:45 29.3 °C 7.2 °C 1003.9 hPa SSW 25.9 km/h 32.2 km/h 25% 0 mm 348.0 W/m2
17:53 28.9 °C 7.5 °C 1003.9 hPa SSW 33.8 km/h 33.8 km/h 26% 0 mm 313.0 W/m2
18:01 28.6 °C 7.8 °C 1003.9 hPa SW 30.6 km/h 35.4 km/h 27% 0 mm 274.0 W/m2
18:08 28.3 °C 7.5 °C 1004.3 hPa SW 17.7 km/h 32.2 km/h 27% 0 mm 257.0 W/m2
18:13 28.1 °C 7.9 °C 1004.3 hPa SSW 30.6 km/h 40.2 km/h 28% 0 mm 236.0 W/m2
18:19 27.9 °C 8.2 °C 1004.3 hPa South 32 km/h 33.8 km/h 29% 0 mm 213.0 W/m2
18:32 27.7 °C 8 °C 1004.3 hPa SSW 28.8 km/h 32.2 km/h 29% 0 mm 167.0 W/m2
18:46 27.2 °C 8.1 °C 1004.6 hPa SSW 25.9 km/h 33.8 km/h 30% 0 mm 100.0 W/m2
19:32 25.4 °C 8.4 °C 1005.3 hPa SSW 25.9 km/h 29 km/h 34% 0 mm 7.0 W/m2
20:18 23.7 °C 8.5 °C 1006.3 hPa SSW 24.1 km/h 27.4 km/h 38% 0 mm 0.0 W/m2
20:31 23.3 °C 8.6 °C 1006.7 hPa SSW 24.1 km/h 29 km/h 39% 0 mm 0.0 W/m2
20:39 23.1 °C 8.8 °C 1006.7 hPa SSW 22.7 km/h 29 km/h 40% 0 mm 0.0 W/m2
20:49 22.9 °C 8.6 °C 1007 hPa SSW 20.9 km/h 25.7 km/h 40% 0 mm 0.0 W/m2
20:55 22.8 °C 8.5 °C 1007 hPa South 22.7 km/h 30.6 km/h 40% 0 mm 0.0 W/m2
21:06 22.6 °C 8.7 °C 1007.3 hPa South 25.9 km/h 33.8 km/h 41% 0 mm 0.0 W/m2
21:15 22.3 °C 8.8 °C 1007.3 hPa South 22.7 km/h 32.2 km/h 42% 0 mm 0.0 W/m2
21:27 22 °C 8.8 °C 1007.3 hPa SSW 22.7 km/h 29 km/h 43% 0 mm 0.0 W/m2
21:56 21.2 °C 8.8 °C 1008.4 hPa South 32 km/h 32.2 km/h 45% 0 mm 0.0 W/m2
22:07 20.9 °C 8.8 °C 1008.4 hPa South 32 km/h 32.2 km/h 46% 0 mm 0.0 W/m2
22:13 20.8 °C 8.8 °C 1008.4 hPa South 19.5 km/h 29 km/h 46% 0 mm 0.0 W/m2
22:22 20.6 °C 8.6 °C 1008.7 hPa South 27.4 km/h 30.6 km/h 46% 0 mm 0.0 W/m2
22:27 20.5 °C 8.5 °C 1008.7 hPa SSW 22.7 km/h 25.7 km/h 46% 0 mm 0.0 W/m2
22:32 20.4 °C 8.7 °C 1008.7 hPa South 25.9 km/h 29 km/h 47% 0 mm 0.0 W/m2
22:37 20.3 °C 8 °C 1008.7 hPa South 19.5 km/h 29 km/h 45% 0 mm 0.0 W/m2
22:42 20.2 °C 7.2 °C 1008.7 hPa SSW 28.8 km/h 29 km/h 43% 0 mm 0.0 W/m2
22:47 20.2 °C 6.9 °C 1008.7 hPa South 16.3 km/h 27.4 km/h 42% 0 mm 0.0 W/m2
22:52 20.1 °C 6.1 °C 1008.7 hPa South 28.8 km/h 32.2 km/h 40% 0 mm 0.0 W/m2
22:57 20.1 °C 5.3 °C 1008.7 hPa SSW 25.9 km/h 30.6 km/h 38% 0 mm 0.0 W/m2
23:02 20.1 °C 5.3 °C 1008.7 hPa South 24.1 km/h 30.6 km/h 38% 0 mm 0.0 W/m2
23:12 19.9 °C 4.8 °C 1009 hPa South 20.9 km/h 24.1 km/h 37% 0 mm 0.0 W/m2
23:22 19.8 °C 4.3 °C 1008.7 hPa SSW 20.9 km/h 24.1 km/h 36% 0 mm 0.0 W/m2
23:27 19.7 °C 3.8 °C 1008.7 hPa South 22.7 km/h 27.4 km/h 35% 0 mm 0.0 W/m2
23:32 19.6 °C 4.1 °C 1009 hPa South 20.9 km/h 27.4 km/h 36% 0 mm 0.0 W/m2
23:37 19.6 °C 4.1 °C 1009 hPa South 17.7 km/h 20.9 km/h 36% 0 mm 0.0 W/m2
23:42 19.4 °C 3.9 °C 1009 hPa South 16.3 km/h 25.7 km/h 36% 0 mm 0.0 W/m2
23:52 19.2 °C 4.2 °C 1009 hPa South 17.7 km/h 29 km/h 37% 0 mm 0.0 W/m2
23:57 19.1 °C 4.4 °C 1009 hPa SSW 16.3 km/h 30.6 km/h 38% 0 mm 0.0 W/m2
Canyon Roadhouse, Fishriver Canyon, Namibia
Compliments of Weather Underground - 2.5 mb